createdAt,value
2023-03-21T00:00:43.159Z,5.80
2023-03-21T00:03:09.989Z,6.20
2023-03-21T00:05:49.597Z,5.50
2023-03-21T00:08:16.323Z,5.50
2023-03-21T00:10:43.969Z,6.50
2023-03-21T00:13:15.776Z,5.63
2023-03-21T00:16:19.846Z,4.78
2023-03-21T00:18:43.059Z,5.30
2023-03-21T00:24:00.900Z,5.28
2023-03-21T00:26:27.744Z,5.70
2023-03-21T00:28:54.347Z,5.68
2023-03-21T00:31:20.984Z,5.15
2023-03-21T00:33:49.563Z,4.93
2023-03-21T00:36:16.486Z,5.60
2023-03-21T00:38:43.262Z,6.00
2023-03-21T00:41:23.340Z,6.40
2023-03-21T00:43:58.222Z,5.70
2023-03-21T00:46:27.618Z,5.97
2023-03-21T00:48:56.624Z,5.43
2023-03-21T00:53:58.396Z,6.70
2023-03-21T00:56:27.516Z,6.38
2023-03-21T01:01:20.603Z,6.05
2023-03-21T01:03:51.163Z,6.75
2023-03-21T01:06:19.703Z,6.63
2023-03-21T01:08:52.721Z,6.20
2023-03-21T01:11:26.113Z,5.78
2023-03-21T01:13:59.781Z,5.65
2023-03-21T01:16:31.709Z,5.22
2023-03-21T01:18:59.597Z,4.90
2023-03-21T01:21:26.764Z,5.75
2023-03-21T01:23:53.293Z,6.80
2023-03-21T01:26:20.268Z,5.75
2023-03-21T01:28:46.875Z,5.18
2023-03-21T01:31:15.427Z,6.47
2023-03-21T01:33:42.503Z,5.53
2023-03-21T01:36:16.802Z,5.90
2023-03-21T01:38:44.144Z,5.80
2023-03-21T01:41:22.061Z,6.43
2023-03-21T01:43:52.182Z,5.85
2023-03-21T01:46:51.444Z,5.10
2023-03-21T01:49:56.628Z,5.95
2023-03-21T01:52:39.030Z,6.65
2023-03-21T01:55:26.383Z,6.30
2023-03-21T01:58:06.649Z,5.80
2023-03-21T02:00:46.287Z,6.10
2023-03-21T02:03:35.762Z,5.97
2023-03-21T02:06:51.059Z,7.25
2023-03-21T02:09:36.992Z,6.05
2023-03-21T02:12:08.807Z,6.28
2023-03-21T02:14:37.666Z,6.10
2023-03-21T02:17:22.414Z,5.78
2023-03-21T02:20:22.729Z,5.93
2023-03-21T02:23:28.347Z,5.90
2023-03-21T02:26:40.831Z,5.70
2023-03-21T02:29:17.641Z,6.45
2023-03-21T02:32:22.547Z,6.10
2023-03-21T02:35:24.723Z,5.95
2023-03-21T02:38:10.228Z,6.75
2023-03-21T02:40:47.734Z,6.72
2023-03-21T02:43:46.839Z,6.03
2023-03-21T02:46:24.216Z,6.10
2023-03-21T02:49:08.143Z,5.90
2023-03-21T02:51:37.511Z,6.75
2023-03-21T02:54:28.222Z,7.05
2023-03-21T02:57:00.968Z,6.15
2023-03-21T02:59:29.073Z,6.20
2023-03-21T03:02:00.071Z,6.03
2023-03-21T03:04:28.869Z,6.65
2023-03-21T03:07:04.678Z,6.80
2023-03-21T03:09:44.596Z,6.20
2023-03-21T03:12:32.276Z,6.45
2023-03-21T03:17:58.638Z,6.32
2023-03-21T03:20:39.278Z,5.95
2023-03-21T03:23:06.033Z,6.80
2023-03-21T03:25:43.737Z,6.18
2023-03-21T03:28:18.053Z,6.35
2023-03-21T03:31:00.848Z,6.32
2023-03-21T03:33:37.149Z,5.85
2023-03-21T03:36:07.036Z,5.35
2023-03-21T03:38:39.055Z,6.60
2023-03-21T03:41:21.635Z,6.03
2023-03-21T03:43:57.974Z,6.13
2023-03-21T03:46:33.964Z,5.70
2023-03-21T03:49:09.909Z,6.22
2023-03-21T03:51:50.761Z,5.70
2023-03-21T03:54:42.444Z,6.57
2023-03-21T03:57:12.150Z,6.30
2023-03-21T03:59:41.519Z,6.22
2023-03-21T04:02:32.206Z,6.25
2023-03-21T04:05:02.911Z,5.57
2023-03-21T04:07:29.482Z,6.03
2023-03-21T04:09:59.796Z,6.13
2023-03-21T04:12:27.226Z,6.15
2023-03-21T04:15:20.408Z,6.35
2023-03-21T04:17:56.464Z,6.32
2023-03-21T04:20:34.234Z,6.45
2023-03-21T04:23:02.891Z,6.57
2023-03-21T04:25:33.765Z,6.28
2023-03-21T04:28:03.325Z,5.95
2023-03-21T04:31:01.188Z,5.55
2023-03-21T04:33:38.510Z,6.47
2023-03-21T04:36:09.392Z,6.20
2023-03-21T04:38:36.879Z,5.65
2023-03-21T04:41:04.450Z,5.88
2023-03-21T04:43:32.082Z,6.18
2023-03-21T04:45:58.726Z,5.95
2023-03-21T04:48:26.183Z,6.43
2023-03-21T04:50:52.768Z,6.60
2023-03-21T04:53:19.457Z,6.07
2023-03-21T04:55:46.289Z,6.65
2023-03-21T04:58:13.295Z,6.65
2023-03-21T05:00:40.258Z,6.85
2023-03-21T05:03:09.168Z,6.50
2023-03-21T05:05:38.163Z,6.30
2023-03-21T05:08:05.963Z,6.85
2023-03-21T05:10:33.053Z,6.82
2023-03-21T05:12:59.857Z,6.68
2023-03-21T05:15:27.857Z,6.07
2023-03-21T05:17:54.383Z,6.40
2023-03-21T05:20:21.073Z,6.28
2023-03-21T05:22:51.483Z,6.22
2023-03-21T05:25:35.182Z,6.18
2023-03-21T05:28:23.682Z,6.63
2023-03-21T05:30:50.396Z,6.18
2023-03-21T05:33:17.040Z,5.78
2023-03-21T05:35:43.759Z,6.25
2023-03-21T05:38:12.034Z,6.72
2023-03-21T05:40:49.467Z,5.82
2023-03-21T05:43:17.769Z,6.25
2023-03-21T05:45:44.938Z,6.32
2023-03-21T05:48:11.612Z,5.13
2023-03-21T05:50:54.883Z,6.55
2023-03-21T05:53:23.374Z,5.80
2023-03-21T05:55:50.289Z,6.50
2023-03-21T05:58:35.154Z,7.90
2023-03-21T06:01:01.885Z,8.25
2023-03-21T06:03:32.329Z,8.63
2023-03-21T06:06:35.104Z,7.22
2023-03-21T06:09:02.257Z,9.63
2023-03-21T06:11:33.260Z,8.60
2023-03-21T06:14:20.407Z,8.38
2023-03-21T06:17:02.645Z,7.93
2023-03-21T06:19:30.206Z,8.13
2023-03-21T06:22:06.775Z,8.70
2023-03-21T06:24:35.899Z,8.15
2023-03-21T06:27:04.074Z,7.75
2023-03-21T06:29:41.965Z,7.63
2023-03-21T06:34:37.750Z,7.88
2023-03-21T06:37:05.810Z,7.60
2023-03-21T06:39:34.085Z,7.72
2023-03-21T06:42:01.060Z,7.90
2023-03-21T06:44:28.059Z,7.55
2023-03-21T06:47:01.311Z,7.22
2023-03-21T06:49:28.058Z,7.40
2023-03-21T06:51:58.111Z,8.27
2023-03-21T06:54:24.832Z,8.15
2023-03-21T06:56:56.680Z,7.68
2023-03-21T06:59:29.788Z,7.18
2023-03-21T07:02:14.506Z,7.10
2023-03-21T07:04:46.798Z,6.90
2023-03-21T07:07:18.480Z,6.78
2023-03-21T07:09:45.349Z,7.57
2023-03-21T07:12:11.929Z,7.93
2023-03-21T07:14:56.732Z,8.60
2023-03-21T07:17:23.690Z,7.82
2023-03-21T07:19:50.266Z,6.82
2023-03-21T07:22:18.840Z,8.40
2023-03-21T07:24:55.827Z,8.35
2023-03-21T07:27:29.487Z,8.10
2023-03-21T07:29:56.296Z,8.73
2023-03-21T07:32:23.117Z,8.05
2023-03-21T07:34:50.027Z,8.43
2023-03-21T07:39:43.407Z,8.33
2023-03-21T07:42:11.980Z,9.13
2023-03-21T07:44:39.499Z,6.82
2023-03-21T07:49:33.251Z,7.15
2023-03-21T07:52:00.207Z,7.65
2023-03-21T07:54:28.528Z,8.55
2023-03-21T07:56:56.748Z,9.52
2023-03-21T07:59:23.508Z,9.85
2023-03-21T08:01:50.470Z,10.02
2023-03-21T08:04:17.167Z,8.68
2023-03-21T08:06:43.801Z,9.65
2023-03-21T08:09:10.396Z,8.68
2023-03-21T08:14:03.491Z,9.02
2023-03-21T08:16:30.131Z,8.90
2023-03-21T08:18:56.806Z,7.93
2023-03-21T08:23:49.980Z,9.50
2023-03-21T08:28:46.406Z,8.13
2023-03-21T08:31:13.798Z,9.02
2023-03-21T08:33:40.362Z,8.75
2023-03-21T08:38:34.652Z,8.23
2023-03-21T08:41:01.395Z,9.30
2023-03-21T08:43:29.188Z,9.07
2023-03-21T08:45:56.721Z,9.70
2023-03-21T08:48:23.403Z,8.43
2023-03-21T08:50:49.987Z,8.27
2023-03-21T08:55:44.343Z,10.27
2023-03-21T08:58:11.290Z,8.07
2023-03-21T09:00:37.925Z,8.38
2023-03-21T09:03:05.022Z,6.72
2023-03-21T09:05:31.917Z,5.75
2023-03-21T09:07:58.528Z,6.75
2023-03-21T09:10:25.480Z,6.50
2023-03-21T09:12:54.543Z,6.20
2023-03-21T09:15:24.452Z,6.75
2023-03-21T09:17:54.235Z,6.32
2023-03-21T09:20:31.034Z,5.68
2023-03-21T09:22:59.216Z,5.97
2023-03-21T09:25:29.455Z,5.65
2023-03-21T09:27:56.487Z,6.07
2023-03-21T09:30:26.015Z,5.88
2023-03-21T09:32:54.259Z,5.90
2023-03-21T09:35:21.192Z,5.93
2023-03-21T09:37:49.031Z,5.60
2023-03-21T09:40:20.158Z,5.03
2023-03-21T09:42:58.205Z,4.85
2023-03-21T09:45:38.568Z,5.53
2023-03-21T09:48:15.378Z,4.03
2023-03-21T09:50:43.340Z,5.30
2023-03-21T09:53:18.679Z,4.25
2023-03-21T09:55:46.339Z,5.05
2023-03-21T09:58:26.255Z,5.18
2023-03-21T10:01:01.907Z,4.45
2023-03-21T10:03:36.773Z,4.57
2023-03-21T10:06:15.289Z,4.20
2023-03-21T10:08:47.097Z,4.18
2023-03-21T10:11:29.765Z,4.38
2023-03-21T10:14:04.905Z,4.55
2023-03-21T10:16:36.429Z,3.40
2023-03-21T10:19:10.623Z,4.38
2023-03-21T10:21:59.820Z,4.38
2023-03-21T10:24:29.663Z,4.70
2023-03-21T10:26:57.193Z,4.25
2023-03-21T10:29:32.672Z,3.00
2023-03-21T10:31:59.449Z,4.03
2023-03-21T10:34:34.864Z,3.50
2023-03-21T10:37:03.577Z,3.83
2023-03-21T10:39:37.855Z,4.07
2023-03-21T10:42:04.484Z,4.47
2023-03-21T10:44:35.677Z,3.78
2023-03-21T10:47:08.401Z,4.32
2023-03-21T10:50:05.695Z,3.75
2023-03-21T10:52:28.726Z,4.13
2023-03-21T10:55:17.560Z,3.70
2023-03-21T10:57:46.893Z,4.00
2023-03-21T11:00:33.904Z,4.22
2023-03-21T11:03:01.379Z,3.20
2023-03-21T11:05:36.638Z,3.20
2023-03-21T11:08:07.109Z,3.28
2023-03-21T11:10:38.042Z,3.08
2023-03-21T11:13:16.857Z,3.42
2023-03-21T11:15:58.429Z,3.42
2023-03-21T11:18:27.599Z,3.40
2023-03-21T11:20:57.284Z,2.65
2023-03-21T11:23:30.353Z,3.33
2023-03-21T11:26:00.398Z,3.50
2023-03-21T11:28:34.255Z,2.75
2023-03-21T11:31:03.572Z,3.00
2023-03-21T11:33:38.455Z,3.28
2023-03-21T11:36:18.816Z,3.90
2023-03-21T11:38:51.610Z,3.53
2023-03-21T11:41:28.910Z,3.53
2023-03-21T11:43:55.762Z,3.75
2023-03-21T11:46:27.799Z,3.38
2023-03-21T11:48:55.967Z,4.13
2023-03-21T11:51:31.623Z,3.13
2023-03-21T11:54:14.901Z,3.40
2023-03-21T11:56:47.734Z,2.88
2023-03-21T11:59:33.646Z,4.18
2023-03-21T12:02:31.254Z,3.40
2023-03-21T12:05:05.281Z,3.95
2023-03-21T12:07:51.861Z,4.82
2023-03-21T12:10:42.889Z,3.92
2023-03-21T12:13:27.036Z,3.60
2023-03-21T12:16:05.749Z,3.75
2023-03-21T12:19:15.858Z,3.25
2023-03-21T12:22:06.025Z,3.75
2023-03-21T12:24:57.557Z,3.75
2023-03-21T12:27:41.650Z,3.65
2023-03-21T12:30:26.683Z,3.63
2023-03-21T12:33:10.146Z,3.40
2023-03-21T12:36:17.721Z,4.22
2023-03-21T12:39:10.406Z,3.75
2023-03-21T12:41:45.499Z,4.20
2023-03-21T12:44:17.380Z,3.63
2023-03-21T12:47:06.687Z,3.67
2023-03-21T12:49:38.546Z,3.47
2023-03-21T12:52:14.522Z,3.75
2023-03-21T12:54:46.909Z,4.00
2023-03-21T12:57:26.382Z,4.47
2023-03-21T12:59:58.756Z,4.20
2023-03-21T13:02:34.206Z,3.58
2023-03-21T13:05:17.189Z,3.92
2023-03-21T13:07:57.997Z,3.65
2023-03-21T13:10:25.034Z,4.05
2023-03-21T13:13:20.724Z,5.03
2023-03-21T13:16:04.908Z,4.47
2023-03-21T13:18:48.856Z,4.07
2023-03-21T13:21:24.336Z,4.18
2023-03-21T13:24:04.614Z,4.53
2023-03-21T13:26:38.156Z,3.67
2023-03-21T13:29:45.295Z,3.53
2023-03-21T13:32:33.881Z,3.50
2023-03-21T13:35:13.646Z,4.03
2023-03-21T13:37:51.617Z,3.38
2023-03-21T13:40:25.297Z,4.13
2023-03-21T13:42:54.617Z,3.42
2023-03-21T13:45:32.063Z,3.78
2023-03-21T13:48:00.802Z,4.20
2023-03-21T13:50:33.325Z,3.22
2023-03-21T13:53:20.882Z,4.05
2023-03-21T13:55:59.250Z,3.65
2023-03-21T13:58:40.628Z,4.70
2023-03-21T14:01:21.937Z,3.53
2023-03-21T14:03:48.545Z,3.85
2023-03-21T14:11:16.176Z,4.10
2023-03-21T14:13:50.861Z,4.15
2023-03-21T14:16:19.213Z,4.20
2023-03-21T14:19:02.635Z,4.28
2023-03-21T14:21:32.066Z,5.25
2023-03-21T14:24:11.451Z,4.05
2023-03-21T14:26:43.599Z,3.55
2023-03-21T14:29:26.303Z,4.03
2023-03-21T14:31:56.593Z,3.60
2023-03-21T14:34:26.126Z,3.70
2023-03-21T14:36:58.190Z,3.83
2023-03-21T14:39:31.232Z,3.38
2023-03-21T14:42:05.059Z,3.65
2023-03-21T14:44:53.379Z,4.38
2023-03-21T14:47:24.392Z,4.22
2023-03-21T14:49:51.164Z,3.35
2023-03-21T14:52:24.386Z,4.05
2023-03-21T14:54:52.470Z,3.53
2023-03-21T14:57:22.565Z,3.55
2023-03-21T14:59:53.210Z,3.28
2023-03-21T15:02:29.345Z,3.10
2023-03-21T15:04:58.727Z,2.80
2023-03-21T15:07:32.597Z,3.70
2023-03-21T15:10:06.099Z,3.65
2023-03-21T15:12:33.256Z,3.60
2023-03-21T15:15:01.783Z,3.67
2023-03-21T15:17:29.297Z,3.63
2023-03-21T15:19:55.831Z,4.15
2023-03-21T15:27:34.801Z,3.35
2023-03-21T15:30:01.360Z,4.53
2023-03-21T15:35:04.488Z,3.97
2023-03-21T15:37:36.401Z,2.95
2023-03-21T15:40:09.747Z,3.97
2023-03-21T15:42:41.235Z,3.72
2023-03-21T15:45:20.138Z,4.13
2023-03-21T15:47:49.588Z,3.40
2023-03-21T15:50:37.626Z,3.80
2023-03-21T15:53:07.743Z,4.40
2023-03-21T15:55:48.162Z,3.40
2023-03-21T15:58:19.034Z,3.88
2023-03-21T16:00:55.561Z,3.28
2023-03-21T16:03:22.254Z,4.20
2023-03-21T16:08:33.574Z,3.65
2023-03-21T16:11:08.621Z,3.50
2023-03-21T16:13:35.175Z,4.57
2023-03-21T16:18:29.493Z,5.05
2023-03-21T16:20:57.567Z,4.05
2023-03-21T16:23:24.076Z,4.35
2023-03-21T16:28:22.372Z,5.35
2023-03-21T16:30:48.912Z,4.18
2023-03-21T16:33:15.516Z,4.20
2023-03-21T16:38:12.321Z,4.95
2023-03-21T16:40:41.644Z,4.30
2023-03-21T16:43:08.497Z,3.50
2023-03-21T16:45:35.854Z,3.55
2023-03-21T16:48:03.013Z,3.28
2023-03-21T16:50:35.500Z,4.43
2023-03-21T16:53:02.459Z,3.88
2023-03-21T16:55:29.770Z,4.97
2023-03-21T16:57:57.428Z,4.00
2023-03-21T17:00:27.196Z,4.45
2023-03-21T17:02:55.601Z,4.10
2023-03-21T17:05:25.725Z,4.22
2023-03-21T17:07:55.630Z,3.53
2023-03-21T17:10:22.069Z,3.58
2023-03-21T17:12:49.154Z,3.72
2023-03-21T17:15:16.735Z,3.90
2023-03-21T17:17:43.869Z,2.97
2023-03-21T17:20:21.159Z,3.25
2023-03-21T17:22:48.678Z,4.00
2023-03-21T17:25:16.066Z,3.45
2023-03-21T17:27:42.590Z,2.95
2023-03-21T17:32:41.383Z,3.72
2023-03-21T17:37:34.481Z,3.63
2023-03-21T17:42:27.526Z,4.70
2023-03-21T17:44:54.041Z,4.63
2023-03-21T17:47:25.431Z,5.10
2023-03-21T17:49:52.783Z,5.28
2023-03-21T17:52:19.366Z,5.88
2023-03-21T17:57:12.643Z,4.25
2023-03-21T17:59:39.129Z,4.50
2023-03-21T18:04:32.202Z,4.20
2023-03-21T18:09:28.482Z,4.30
2023-03-21T18:11:54.956Z,4.95
2023-03-21T18:14:27.892Z,4.82
2023-03-21T18:16:55.686Z,5.50
2023-03-21T18:19:22.261Z,4.43
2023-03-21T18:24:15.474Z,4.90
2023-03-21T18:26:43.568Z,4.50
2023-03-21T18:30:17.561Z,5.63
2023-03-21T18:32:06.886Z,5.03
2023-03-21T18:34:37.008Z,5.50
2023-03-21T18:37:04.774Z,4.72
2023-03-21T18:39:33.042Z,5.10
2023-03-21T18:42:02.642Z,4.47
2023-03-21T18:44:31.144Z,3.83
2023-03-21T18:46:58.441Z,5.05
2023-03-21T18:50:06.071Z,4.55
2023-03-21T18:52:12.234Z,4.97
2023-03-21T18:54:39.597Z,4.50
2023-03-21T18:57:34.588Z,4.88
2023-03-21T18:59:53.566Z,5.18
2023-03-21T19:02:20.100Z,5.13
2023-03-21T19:07:13.190Z,4.40
2023-03-21T19:12:27.791Z,4.40
2023-03-21T19:14:54.543Z,4.60
2023-03-21T19:20:09.896Z,6.95
2023-03-21T19:22:36.746Z,5.90
2023-03-21T19:25:05.578Z,5.78
2023-03-21T19:27:33.830Z,5.60
2023-03-21T19:30:13.852Z,6.35
2023-03-21T19:32:41.309Z,5.72
2023-03-21T19:35:08.403Z,5.80
2023-03-21T19:37:36.303Z,5.07
2023-03-21T19:40:05.285Z,5.65
2023-03-21T19:42:32.390Z,5.22
2023-03-21T19:44:59.003Z,6.50
2023-03-21T19:52:40.743Z,5.85
2023-03-21T19:57:34.875Z,5.53
2023-03-21T20:00:02.364Z,6.55
2023-03-21T20:02:36.648Z,5.93
2023-03-21T20:05:07.633Z,6.22
2023-03-21T20:07:34.525Z,6.35
2023-03-21T20:10:01.108Z,5.38
2023-03-21T20:15:06.947Z,5.82
2023-03-21T20:17:38.746Z,5.55
2023-03-21T20:20:10.338Z,5.10
2023-03-21T20:23:05.231Z,4.57
2023-03-21T20:25:23.369Z,5.97
2023-03-21T20:30:36.566Z,5.70
2023-03-21T20:33:03.209Z,6.00
2023-03-21T20:38:20.476Z,5.82
2023-03-21T20:40:48.003Z,5.53
2023-03-21T20:44:06.567Z,6.63
2023-03-21T20:46:04.457Z,5.70
2023-03-21T20:48:31.576Z,5.72
2023-03-21T20:51:25.069Z,5.00
2023-03-21T20:53:48.789Z,4.47
2023-03-21T20:59:16.254Z,4.03
2023-03-21T21:01:28.955Z,3.75
2023-03-21T21:03:57.517Z,4.38
2023-03-21T21:06:24.268Z,4.45
2023-03-21T21:08:51.158Z,5.47
2023-03-21T21:12:03.118Z,5.85
2023-03-21T21:14:05.354Z,6.03
2023-03-21T21:16:32.754Z,6.72
2023-03-21T21:18:59.474Z,8.18
2023-03-21T21:21:25.967Z,8.48
2023-03-21T21:26:19.304Z,7.90
2023-03-21T21:28:47.477Z,7.20
2023-03-21T21:31:19.850Z,7.35
2023-03-21T21:33:49.991Z,7.50
2023-03-21T21:36:17.017Z,10.43
2023-03-21T21:38:43.545Z,13.02
2023-03-21T21:43:43.658Z,8.68
2023-03-21T21:48:36.936Z,6.82
2023-03-21T21:51:05.470Z,6.85
2023-03-21T21:53:33.723Z,7.50
2023-03-21T21:56:03.324Z,7.90
2023-03-21T21:58:33.638Z,7.47
2023-03-21T22:01:01.787Z,7.05
2023-03-21T22:03:36.436Z,6.68
2023-03-21T22:06:04.554Z,6.70
2023-03-21T22:08:31.152Z,7.00
2023-03-21T22:13:26.174Z,7.03
2023-03-21T22:15:52.632Z,6.95
2023-03-21T22:18:19.320Z,6.60
2023-03-21T22:20:45.989Z,7.13
2023-03-21T22:23:12.459Z,7.57
2023-03-21T22:25:39.389Z,7.03
2023-03-21T22:28:05.907Z,7.35
2023-03-21T22:33:08.834Z,7.43
2023-03-21T22:35:35.865Z,8.60
2023-03-21T22:38:02.346Z,6.82
2023-03-21T22:40:28.826Z,5.88
2023-03-21T22:45:21.783Z,6.18
2023-03-21T22:50:14.728Z,5.20
2023-03-21T22:52:41.211Z,6.03
2023-03-21T22:55:09.957Z,6.35
2023-03-21T22:57:36.466Z,6.70
2023-03-21T23:17:39.603Z,6.60
2023-03-21T23:20:08.564Z,6.72
2023-03-21T23:22:35.828Z,6.25
2023-03-21T23:25:03.070Z,6.50
2023-03-21T23:27:29.842Z,7.45
2023-03-21T23:29:56.982Z,6.65
2023-03-21T23:32:24.158Z,6.30
2023-03-21T23:34:50.789Z,6.80
2023-03-21T23:37:17.624Z,6.38
2023-03-21T23:39:45.310Z,6.30
2023-03-21T23:42:12.050Z,6.22
2023-03-21T23:44:38.824Z,7.10
2023-03-21T23:47:05.529Z,6.95
2023-03-21T23:49:33.831Z,6.07
2023-03-21T23:52:00.720Z,5.15
2023-03-21T23:54:27.747Z,4.95
2023-03-21T23:56:54.398Z,5.47
2023-03-21T23:59:21.069Z,5.35
